Time;durP1;ratioP1;P1;durP2;ratioP2;P2;SDS_P1;SDS_P2;PMS_P1;PMS_P2;Temp;Humidity;BMP_temperature;BMP_pressure;BME280_temperature;BME280_humidity;BME280_pressure;Samples;Min_cycle;Max_cycle;Signal;HPM_P1;HPM_P2
2022/11/05 09:28:17;;;;;;;14.60;6.70;;;;;;;7.72;95.44;96791.09;2089496;28;20536;-73
2022/11/05 10:31:36;;;;;;;12.57;6.32;;;;;;;9.05;86.50;96837.94;2088450;28;20564;-71
2022/11/05 10:32:41;;;;;;;9.02;5.68;;;;;;;9.17;86.33;96847.06;2091343;28;20204;-72
2022/11/05 10:51:06;;;;;;;8.07;6.07;;;;;;;9.65;83.87;96856.63;2100440;28;20171;-72
2022/11/05 10:52:32;;;;;;;7.45;5.47;;;;;;;9.51;83.05;96857.13;2090636;28;20247;-72
2022/11/05 10:53:37;;;;;;;10.35;5.75;;;;;;;9.71;83.37;96837.28;2096664;28;20281;-72
2022/11/05 10:54:40;;;;;;;11.73;6.25;;;;;;;10.18;82.21;96837.16;2100853;28;20282;-72
2022/11/05 10:55:47;;;;;;;12.43;5.90;;;;;;;10.32;81.42;96857.50;2096602;28;20638;-72
2022/11/05 10:56:49;;;;;;;11.57;5.78;;;;;;;10.50;81.38;96862.91;2087673;28;20228;-72
2022/11/05 10:57:51;;;;;;;8.13;5.43;;;;;;;10.36;80.53;96853.03;2084659;28;20196;-72
2022/11/05 10:58:54;;;;;;;10.48;5.75;;;;;;;10.39;80.88;96845.94;2081908;28;20280;-72
2022/11/05 11:00:17;;;;;;;8.98;5.45;;;;;;;10.55;80.88;96864.44;2089850;28;20206;-72
2022/11/05 11:01:19;;;;;;;6.93;5.30;;;;;;;10.37;81.12;96862.56;2086415;28;20679;-72
2022/11/05 11:02:27;;;;;;;9.07;5.38;;;;;;;10.01;80.96;96858.72;2084048;28;20201;-72
2022/11/05 11:10:04;;;;;;;10.70;5.40;;;;;;;10.17;80.34;96851.16;2089049;28;20220;-72
2022/11/05 11:11:11;;;;;;;9.55;5.25;;;;;;;9.88;80.77;96857.47;2089661;28;20227;-72
2022/11/05 11:30:19;;;;;;;10.55;6.75;;;;;;;9.56;83.33;96817.84;2085665;28;20553;-70
2022/11/05 11:31:24;;;;;;;11.55;5.70;;;;;;;9.69;83.43;96849.50;2071936;28;20221;-70
2022/11/05 11:32:32;;;;;;;10.73;7.05;;;;;;;9.83;83.07;96860.28;2072345;28;20864;-70
2022/11/05 11:40:35;;;;;;;13.70;6.65;;;;;;;12.05;72.84;96873.59;2073376;28;20224;-71
2022/11/05 11:41:40;;;;;;;13.35;5.75;;;;;;;10.89;75.47;96857.81;2072772;28;20232;-70
2022/11/05 11:42:54;;;;;;;9.75;6.15;;;;;;;10.94;76.72;96868.03;2075521;28;20304;-70
2022/11/05 11:44:01;;;;;;;15.73;5.57;;;;;;;10.26;76.21;96862.97;2073739;28;20205;-71
2022/11/05 11:58:45;;;;;;;14.38;6.38;;;;;;;10.86;75.94;96863.16;2088128;28;20545;-70
2022/11/05 11:59:47;;;;;;;10.50;6.55;;;;;;;11.13;76.46;96857.66;2082804;28;20220;-70
2022/11/05 12:01:48;;;;;;;9.88;5.40;;;;;;;13.00;68.88;96855.91;2075418;28;20248;-71
2022/11/05 12:02:59;;;;;;;8.77;5.03;;;;;;;14.19;65.93;96875.91;2069145;28;20702;-71
2022/11/05 12:04:31;;;;;;;10.05;5.22;;;;;;;13.96;64.08;96880.63;2069035;28;20286;-71
2022/11/05 12:05:43;;;;;;;9.20;4.55;;;;;;;13.95;62.75;96873.69;2069519;28;20209;-71
2022/11/05 12:06:53;;;;;;;10.05;4.30;;;;;;;13.17;65.29;96874.25;2069987;28;20299;-72
2022/11/05 12:08:02;;;;;;;11.10;5.40;;;;;;;13.05;66.22;96878.38;2068602;28;20202;-71
2022/11/05 12:09:33;;;;;;;6.78;4.40;;;;;;;13.69;65.14;96882.97;2069950;28;21090;-71
2022/11/05 12:10:50;;;;;;;12.02;6.15;;;;;;;13.20;66.22;96873.25;2069775;28;20284;-73
2022/11/05 12:12:04;;;;;;;10.00;5.30;;;;;;;12.70;68.98;96864.41;2068667;28;20227;-73
2022/11/05 12:13:17;;;;;;;7.95;5.13;;;;;;;13.26;67.11;96875.56;2066035;28;20290;-73
2022/11/05 12:14:50;;;;;;;8.20;5.10;;;;;;;12.92;67.13;96852.84;2068292;28;20281;-73
2022/11/05 12:16:04;;;;;;;11.90;5.93;;;;;;;14.13;64.37;96869.22;2067778;28;20233;-73
2022/11/05 12:17:15;;;;;;;13.40;6.60;;;;;;;13.75;64.36;96853.78;2069591;28;20661;-73
2022/11/05 12:18:41;;;;;;;12.13;5.40;;;;;;;13.08;66.09;96824.94;2068746;28;20296;-73
2022/11/05 12:20:03;;;;;;;8.52;4.25;;;;;;;12.76;67.21;96863.25;2069014;28;20334;-73
2022/11/05 12:21:30;;;;;;;8.55;4.40;;;;;;;13.36;66.37;96862.81;2068105;28;20224;-73
2022/11/05 12:23:10;;;;;;;8.85;3.90;;;;;;;12.33;68.19;96868.81;2069177;28;20235;-72
2022/11/05 12:24:34;;;;;;;7.72;4.50;;;;;;;11.80;69.46;96868.63;2069285;28;20206;-73
2022/11/05 12:25:53;;;;;;;6.78;4.45;;;;;;;11.21;71.19;96860.78;2070073;28;20202;-72
2022/11/05 12:27:32;;;;;;;11.02;5.25;;;;;;;10.94;72.23;96862.81;2069884;28;20244;-73
2022/11/05 12:28:45;;;;;;;7.50;4.70;;;;;;;10.59;72.45;96863.41;2069317;28;20233;-73
2022/11/05 12:30:19;;;;;;;23.27;5.28;;;;;;;9.98;73.84;96869.28;2068628;28;20298;-73
2022/11/05 12:31:58;;;;;;;9.25;4.70;;;;;;;11.02;71.05;96863.34;2068760;28;20301;-73
2022/11/05 12:39:40;;;;;;;10.00;5.40;;;;;;;9.74;76.63;96866.69;2069160;28;20209;-73
2022/11/05 12:40:59;;;;;;;9.60;5.90;;;;;;;9.71;76.28;96865.97;2066896;28;20249;-73
2022/11/05 12:42:11;;;;;;;10.23;5.72;;;;;;;9.55;78.68;96853.50;2069789;28;20201;-75
2022/11/05 12:43:34;;;;;;;12.07;5.20;;;;;;;9.62;78.00;96865.41;2069531;28;20297;-75
2022/11/05 12:44:56;;;;;;;12.13;6.63;;;;;;;9.54;77.59;96823.13;2069893;28;20752;-75
2022/11/05 12:46:08;;;;;;;8.38;5.35;;;;;;;9.86;77.38;96862.75;2069503;28;20305;-75
2022/11/05 12:47:27;;;;;;;10.48;6.80;;;;;;;9.96;76.73;96855.44;2069130;28;20264;-75
2022/11/05 12:48:46;;;;;;;16.45;5.90;;;;;;;9.72;76.04;96865.06;2069012;28;20280;-75
2022/11/05 12:50:09;;;;;;;12.75;7.35;;;;;;;9.73;78.17;96856.34;2068730;28;20201;-75
2022/11/05 12:51:31;;;;;;;17.55;5.85;;;;;;;9.93;77.11;96864.22;2068806;28;20269;-75
2022/11/05 12:53:06;;;;;;;11.02;6.25;;;;;;;9.90;75.78;96837.41;2069196;28;20244;-76
2022/11/05 12:54:13;;;;;;;10.90;6.43;;;;;;;10.03;75.63;96859.53;2076673;28;20544;-75
2022/11/05 12:55:24;;;;;;;12.73;5.90;;;;;;;9.80;76.10;96865.59;2069218;28;20241;-75
2022/11/05 12:56:43;;;;;;;10.65;4.65;;;;;;;9.67;76.64;96856.56;2067568;28;20901;-74
2022/11/05 12:57:48;;;;;;;16.83;7.00;;;;;;;9.70;77.03;96859.03;2070195;28;20208;-76
2022/11/05 12:59:21;;;;;;;18.60;6.47;;;;;;;9.62;76.90;96860.19;2070256;28;20236;-76
2022/11/05 13:00:25;;;;;;;16.88;6.05;;;;;;;9.63;76.89;96843.63;2056432;28;20245;-77
2022/11/05 13:01:49;;;;;;;14.90;5.50;;;;;;;9.69;77.29;96863.41;2067559;28;20762;-75
2022/11/05 13:08:02;;;;;;;8.07;5.28;;;;;;;9.60;77.69;96874.19;2068277;28;20206;-75
2022/11/05 13:09:14;;;;;;;10.27;4.60;;;;;;;9.41;78.19;96866.22;2068296;28;20666;-75
2022/11/05 13:10:30;;;;;;;9.10;4.75;;;;;;;9.52;78.31;96868.41;2070408;28;20325;-75
2022/11/05 13:11:47;;;;;;;17.40;5.10;;;;;;;9.24;77.38;96859.84;2068545;28;20788;-76
2022/11/05 13:13:01;;;;;;;15.02;4.70;;;;;;;9.11;78.10;96875.03;2063159;28;20885;-75
2022/11/05 15:21:20;;;;;;;8.52;4.40;;;;;;;9.14;79.35;96908.81;2081143;28;21077;-73
2022/11/05 15:22:29;;;;;;;8.65;4.20;;;;;;;9.18;79.61;96924.34;2079243;28;20789;-73
2022/11/05 15:23:51;;;;;;;28.60;5.20;;;;;;;9.24;79.80;96917.19;2094789;28;20291;-72
2022/11/05 15:24:54;;;;;;;8.55;4.30;;;;;;;9.71;77.38;96920.72;2089162;28;20707;-73
2022/11/05 15:26:13;;;;;;;10.35;4.28;;;;;;;9.95;76.58;96898.09;2078323;28;20407;-73
2022/11/05 15:27:33;;;;;;;11.70;4.93;;;;;;;10.33;76.13;96916.63;2078801;28;20779;-73
2022/11/05 15:28:43;;;;;;;7.10;3.40;;;;;;;9.93;73.68;96910.34;2078286;28;20347;-73
2022/11/05 15:29:45;;;;;;;16.85;3.45;;;;;;;9.58;74.70;96900.31;2078883;28;20204;-73
2022/11/05 15:30:57;;;;;;;8.68;3.35;;;;;;;9.63;75.09;96919.22;2077436;28;20197;-72
2022/11/05 15:31:58;;;;;;;6.82;3.05;;;;;;;9.36;75.75;96913.28;2077951;28;20700;-73
2022/11/05 15:36:46;;;;;;;7.72;3.25;;;;;;;8.84;78.15;96895.09;2102166;27;20575;-72
2022/11/05 15:37:48;;;;;;;7.70;3.22;;;;;;;9.39;77.09;96915.75;2098073;28;20206;-72
2022/11/05 15:38:58;;;;;;;9.80;3.03;;;;;;;9.07;76.22;96883.88;2097920;28;20200;-72
2022/11/05 15:40:29;;;;;;;9.65;3.40;;;;;;;9.23;76.69;96920.69;2099095;28;20288;-72
